• Join FlightAware (Why Join?)
  • Login
  • US Flag 
05:14PM EDT


 

Airport Tracker/Info


-or-


 

Live Flight TrackerFlight Track Log ✈ OPT452 ✈ 18-Apr-2013 ✈ KAHN - KAUO

Flight Track Log - Related Links

Times and Time Zones

All times are in EDT time to prevent confusion due to time zone crossing. See the OPT452 flight status page for this flight to view local times or setup timezone preferences in your user account.

Time Position Orientation Groundspeed Altitude Reporting Facility
EDT Latitude Longitude Course Direction KTS MPH feet Rate Location/Type
03:13PM 33.9333 -83.3000 244° Southwest 155 178 2,200  Level Atlanta TRACON
03:14PM 33.9089 -83.2953 171° South 163 188 2,800 2,220 Climbing Atlanta Center
03:15PM 33.8525 -83.3033 187° South 204 235 5,500 2,940 Climbing Atlanta Center
03:16PM 33.7881 -83.3214 193° South 224 258 8,700 3,120 Climbing Atlanta Center
03:17PM 33.7214 -83.3394 193° South 239 275 11,800 2,400 Climbing Atlanta Center
03:18PM 33.6756 -83.3997 228° Southwest 246 283 13,600 1,620 Climbing Atlanta Center
03:19PM 33.7643 -83.6976 244° Southwest  Level FlightAware Approximate
03:19PM 33.6364 -83.4725 237° Southwest 260 299 15,100  Level Atlanta Center
03:20PM 33.5889 -83.5625 238° Southwest 304 350 16,000 420 Climbing Atlanta Center
03:21PM 33.5369 -83.6675 239° Southwest 351 404 16,000  Level Atlanta Center
03:22PM 33.4850 -83.7672 238° Southwest 366 421 16,000  Level Atlanta Center
03:23PM 33.4372 -83.8619 239° Southwest 344 396 16,000  Level Atlanta Center
03:24PM 33.3892 -83.9542 238° Southwest 339 390 16,000  Level Atlanta Center
03:25PM 33.3350 -84.0586 238° Southwest 339 390 16,000  Level Atlanta Center
03:26PM 33.2869 -84.1556 239° Southwest 339 390 16,000  Level Atlanta Center
03:27PM 33.2347 -84.2525 237° Southwest 339 390 16,000  Level Atlanta Center
03:28PM 33.1864 -84.3517 240° Southwest 339 390 16,000  Level Atlanta Center
03:29PM 33.1361 -84.4481 238° Southwest 347 399 16,000  Level Atlanta Center
03:30PM 33.0836 -84.5472 238° Southwest 347 399 16,000  Level Atlanta Center
03:31PM 33.0308 -84.6458 237° Southwest 347 399 16,000  Level Atlanta Center
03:32PM 32.9867 -84.7372 240° Southwest 347 399 16,000  Level Atlanta Center
03:33PM 32.9339 -84.8333 237° Southwest 352 405 16,000  Level Atlanta Center
03:34PM 32.8831 -84.9317 238° Southwest 352 405 16,000  Level Atlanta Center
03:35PM 32.8300 -85.0278 237° Southwest 352 405 16,000 -300 Level Atlanta Center
03:36PM 32.7772 -85.1233 237° Southwest 352 405 15,500 -1,560 Descending Atlanta Center
03:37PM 32.7283 -85.2192 239° Southwest 352 405 12,900 -3,060 Descending Atlanta Center
03:38PM 32.6794 -85.3122 238° Southwest 341 392 9,400 -3,600 Descending Atlanta Center
03:39PM 32.7100 -85.3719 301° West 253 291 5,800 -3,180 Descending Atlanta Center
03:40PM 32.7281 -85.4389 288° West 214 246 3,100 -1,500 Descending Atlanta Center
03:41PM 32.6839 -85.4556 198° South 142 163 2,800 6,420 Descending Atlanta Center
03:42PM 32.6628 -85.4922 236° Southwest 142 163 16,000 6,600 Climbing Atlanta Center
03:43PM 32.6414 -85.5289 235° Southwest 142 163 16,000  Level Atlanta Center
03:44PM 32.6244 -85.5581 235° Southwest 142 163 16,000  Level Atlanta Center
03:45PM 32.6244 -85.5581 40° Northeast 142 163 16,000  Level Atlanta Center